Louise Cenac — WDI3433 — position and weather

sailwx.info

Track history (hours):
 
Tides and Currents Weather Stations Pressure Air Temp Water Temp Dewpoint Dewpoint Depression Visibility Wind Speed Wind Dir Waves Ship Positions

Louise Cenac

Owner: Cenac Marine Services, Houma, LA. More information available from US FCC via Universal Licensing System and Coast Guard Vessel Documentation Center.

Last reported at 2018-Jun-24 22:00 UTC. Time now 2018-Jun-24 22:00 UTC.
Position N 30°04' W 093°16'.

Length 22 m; draft 2.8 m.

Type: Ship (hazmat cat B). MMSI: 367688280.

Date/timePositionNaut miles runAvg speedWind from/ knotsBaromVisibWave heightAir tempDewpointWater temp
2018-Jun-24 22:00N 30°04' W 093°16'0 0.0
2018-Jun-24 21:28N 30°04' W 093°16'0 0.0
2018-Jun-24 21:00N 30°04' W 093°16'0 0.0
2018-Jun-24 20:30N 30°04' W 093°16'0 0.0
2018-Jun-24 20:00N 30°04' W 093°16'0 0.0
2018-Jun-24 19:30N 30°04' W 093°16'1 1.8
2018-Jun-24 19:00N 30°03' W 093°16'1 2.8
2018-Jun-24 18:28N 30°02' W 093°15'0 0.6
2018-Jun-24 18:00N 30°02' W 093°14'2 4.1
2018-Jun-24 17:30N 29°60' W 093°13'0 0.6
2018-Jun-24 17:00N 29°60' W 093°13'0 0.0
2018-Jun-24 16:30N 29°60' W 093°13'0 0.0
2018-Jun-24 16:00N 29°60' W 093°13'0 0.0
2018-Jun-24 15:30N 29°60' W 093°13'0 0.0
2018-Jun-24 15:00N 29°60' W 093°13'0 0.0
2018-Jun-24 14:30N 29°60' W 093°13'0 0.0
2018-Jun-24 14:00N 29°60' W 093°13'0 0.0
2018-Jun-24 13:30N 29°60' W 093°13'0 0.0
2018-Jun-24 13:00N 29°60' W 093°13'0 0.0
2018-Jun-24 12:30N 29°60' W 093°13'0 0.1
2018-Jun-24 12:00N 29°60' W 093°13'1 1.9
2018-Jun-24 11:28N 29°59' W 093°12'0 0.6
2018-Jun-24 10:56N 29°59' W 093°12'0 0.0
2018-Jun-24 10:27N 29°59' W 093°12'1 1.5
2018-Jun-24 09:58N 29°58' W 093°11'  
2018-Jun-21 03:14N 29°56' W 093°05'2 6.3
2018-Jun-21 02:58N 29°56' W 093°07'3 5.8
2018-Jun-21 02:28N 29°57' W 093°10'4 6.3
2018-Jun-21 01:51N 29°59' W 093°13'2 5.2
2018-Jun-21 01:31N 30°01' W 093°14'2 3.5
2018-Jun-21 01:00N 30°02' W 093°15'2 3.7
2018-Jun-21 00:30N 30°04' W 093°16'2 4.0
2018-Jun-21 00:01N 30°05' W 093°18'1 1.9
2018-Jun-20 23:30N 30°06' W 093°18'0 0.4
2018-Jun-20 23:01N 30°06' W 093°19'0 0.1
2018-Jun-20 22:30N 30°06' W 093°19'0 0.0
2018-Jun-20 22:00N 30°06' W 093°19'0 0.0
2018-Jun-20 21:31N 30°06' W 093°19'0 0.0
2018-Jun-20 20:59N 30°06' W 093°19'0 0.0
2018-Jun-20 20:31N 30°06' W 093°19'0 0.0
2018-Jun-20 20:01N 30°06' W 093°19'0 0.0
2018-Jun-20 19:29N 30°06' W 093°19'0 0.0
2018-Jun-20 19:01N 30°06' W 093°19'0 0.0
2018-Jun-20 18:30N 30°06' W 093°19'0 0.0
2018-Jun-20 18:00N 30°06' W 093°19'0 0.0
2018-Jun-20 17:30N 30°06' W 093°19'0 0.0
2018-Jun-20 17:01N 30°06' W 093°19'0 0.0
2018-Jun-20 16:31N 30°06' W 093°19'0 0.0
2018-Jun-20 16:00N 30°06' W 093°19'0 0.1
2018-Jun-20 15:31N 30°06' W 093°19'0 0.0
2018-Jun-20 14:57N 30°06' W 093°19'0 0.0
2018-Jun-20 14:31N 30°06' W 093°19'0 0.0
2018-Jun-20 14:00N 30°06' W 093°19'0 0.0
2018-Jun-20 13:30N 30°06' W 093°19'0 0.0
2018-Jun-20 13:01N 30°06' W 093°19'0 0.0
2018-Jun-20 12:31N 30°06' W 093°19'0 0.0
2018-Jun-20 12:01N 30°06' W 093°19'1 1.2
2018-Jun-20 11:31N 30°06' W 093°19'0 0.1
2018-Jun-20 11:01N 30°06' W 093°19'0 0.0
2018-Jun-20 10:30N 30°06' W 093°19'0 0.0
2018-Jun-20 10:00N 30°06' W 093°19'0 0.0
2018-Jun-20 09:31N 30°06' W 093°19'0 0.0
2018-Jun-20 09:00N 30°06' W 093°19'0 0.0
2018-Jun-20 08:31N 30°06' W 093°19'0 0.0
2018-Jun-20 08:01N 30°06' W 093°19'0 0.0
2018-Jun-20 07:29N 30°06' W 093°19'0 0.0
2018-Jun-20 07:01N 30°06' W 093°19'0 0.0
2018-Jun-20 06:30N 30°06' W 093°19'1 1.9
2018-Jun-20 06:01N 30°05' W 093°20'2 4.7
2018-Jun-20 05:30N 30°04' W 093°22'3 6.9
2018-Jun-20 05:01N 30°04' W 093°26'8 7.4
2018-Jun-20 03:54N 30°04' W 093°35'3 7.1
2018-Jun-20 03:30N 30°04' W 093°38'3 6.8
2018-Jun-20 03:00N 30°03' W 093°42'2 3.6
2018-Jun-20 02:30N 30°02' W 093°44'3 5.2
2018-Jun-20 02:00N 30°00' W 093°46'0 0.4
2018-Jun-20 01:30N 30°01' W 093°46'3 5.6
2018-Jun-20 01:01N 29°59' W 093°48'3 6.5
2018-Jun-20 00:30N 29°57' W 093°52'3 5.8
2018-Jun-20 00:01N 29°55' W 093°53'2 4.8
2018-Jun-19 23:30N 29°53' W 093°55'3 6.3
2018-Jun-19 23:00N 29°50' W 093°57'3 5.5
2018-Jun-19 22:30N 29°49' W 093°60'3 6.1
2018-Jun-19 22:01N 29°47' W 094°02'3 6.1
2018-Jun-19 21:31N 29°45' W 094°05'3 5.9
2018-Jun-19 21:00N 29°43' W 094°08'3 5.8
2018-Jun-19 20:30N 29°41' W 094°10'3 5.8
2018-Jun-19 20:00N 29°40' W 094°14'  
Track history (hours):
 
Tides and Currents Weather Stations Pressure Air Temp Water Temp Dewpoint Dewpoint Depression Visibility Wind Speed Wind Dir Waves Ship Positions

Louise Cenac

Owner: Cenac Marine Services, Houma, LA. More information available from US FCC via Universal Licensing System and Coast Guard Vessel Documentation Center.

Last reported at 2018-Jun-24 22:00 UTC. Time now 2018-Jun-24 22:00 UTC.
Position N 30°04' W 093°16'.

Length 22 m; draft 2.8 m.

Type: Ship (hazmat cat B). MMSI: 367688280.

Date/timePositionNaut miles runAvg speedWind from/ knotsBaromVisibWave heightAir tempDewpointWater temp
2018-Jun-24 22:00N 30°04' W 093°16'0 0.0
2018-Jun-24 21:28N 30°04' W 093°16'0 0.0
2018-Jun-24 21:00N 30°04' W 093°16'0 0.0
2018-Jun-24 20:30N 30°04' W 093°16'0 0.0
2018-Jun-24 20:00N 30°04' W 093°16'0 0.0
2018-Jun-24 19:30N 30°04' W 093°16'1 1.8
2018-Jun-24 19:00N 30°03' W 093°16'1 2.8
2018-Jun-24 18:28N 30°02' W 093°15'0 0.6
2018-Jun-24 18:00N 30°02' W 093°14'2 4.1
2018-Jun-24 17:30N 29°60' W 093°13'0 0.6
2018-Jun-24 17:00N 29°60' W 093°13'0 0.0
2018-Jun-24 16:30N 29°60' W 093°13'0 0.0
2018-Jun-24 16:00N 29°60' W 093°13'0 0.0
2018-Jun-24 15:30N 29°60' W 093°13'0 0.0
2018-Jun-24 15:00N 29°60' W 093°13'0 0.0
2018-Jun-24 14:30N 29°60' W 093°13'0 0.0
2018-Jun-24 14:00N 29°60' W 093°13'0 0.0
2018-Jun-24 13:30N 29°60' W 093°13'0 0.0
2018-Jun-24 13:00N 29°60' W 093°13'0 0.0
2018-Jun-24 12:30N 29°60' W 093°13'0 0.1
2018-Jun-24 12:00N 29°60' W 093°13'1 1.9
2018-Jun-24 11:28N 29°59' W 093°12'0 0.6
2018-Jun-24 10:56N 29°59' W 093°12'0 0.0
2018-Jun-24 10:27N 29°59' W 093°12'1 1.5
2018-Jun-24 09:58N 29°58' W 093°11'  
2018-Jun-21 03:14N 29°56' W 093°05'2 6.3
2018-Jun-21 02:58N 29°56' W 093°07'3 5.8
2018-Jun-21 02:28N 29°57' W 093°10'4 6.3
2018-Jun-21 01:51N 29°59' W 093°13'2 5.2
2018-Jun-21 01:31N 30°01' W 093°14'2 3.5
2018-Jun-21 01:00N 30°02' W 093°15'2 3.7
2018-Jun-21 00:30N 30°04' W 093°16'2 4.0
2018-Jun-21 00:01N 30°05' W 093°18'1 1.9
2018-Jun-20 23:30N 30°06' W 093°18'0 0.4
2018-Jun-20 23:01N 30°06' W 093°19'0 0.1
2018-Jun-20 22:30N 30°06' W 093°19'0 0.0
2018-Jun-20 22:00N 30°06' W 093°19'0 0.0
2018-Jun-20 21:31N 30°06' W 093°19'0 0.0
2018-Jun-20 20:59N 30°06' W 093°19'0 0.0
2018-Jun-20 20:31N 30°06' W 093°19'0 0.0
2018-Jun-20 20:01N 30°06' W 093°19'0 0.0
2018-Jun-20 19:29N 30°06' W 093°19'0 0.0
2018-Jun-20 19:01N 30°06' W 093°19'0 0.0
2018-Jun-20 18:30N 30°06' W 093°19'0 0.0
2018-Jun-20 18:00N 30°06' W 093°19'0 0.0
2018-Jun-20 17:30N 30°06' W 093°19'0 0.0
2018-Jun-20 17:01N 30°06' W 093°19'0 0.0
2018-Jun-20 16:31N 30°06' W 093°19'0 0.0
2018-Jun-20 16:00N 30°06' W 093°19'0 0.1
2018-Jun-20 15:31N 30°06' W 093°19'0 0.0
2018-Jun-20 14:57N 30°06' W 093°19'0 0.0
2018-Jun-20 14:31N 30°06' W 093°19'0 0.0
2018-Jun-20 14:00N 30°06' W 093°19'0 0.0
2018-Jun-20 13:30N 30°06' W 093°19'0 0.0
2018-Jun-20 13:01N 30°06' W 093°19'0 0.0
2018-Jun-20 12:31N 30°06' W 093°19'0 0.0
2018-Jun-20 12:01N 30°06' W 093°19'1 1.2
2018-Jun-20 11:31N 30°06' W 093°19'0 0.1
2018-Jun-20 11:01N 30°06' W 093°19'0 0.0
2018-Jun-20 10:30N 30°06' W 093°19'0 0.0
2018-Jun-20 10:00N 30°06' W 093°19'0 0.0
2018-Jun-20 09:31N 30°06' W 093°19'0 0.0
2018-Jun-20 09:00N 30°06' W 093°19'0 0.0
2018-Jun-20 08:31N 30°06' W 093°19'0 0.0
2018-Jun-20 08:01N 30°06' W 093°19'0 0.0
2018-Jun-20 07:29N 30°06' W 093°19'0 0.0
2018-Jun-20 07:01N 30°06' W 093°19'0 0.0
2018-Jun-20 06:30N 30°06' W 093°19'1 1.9
2018-Jun-20 06:01N 30°05' W 093°20'2 4.7
2018-Jun-20 05:30N 30°04' W 093°22'3 6.9
2018-Jun-20 05:01N 30°04' W 093°26'8 7.4
2018-Jun-20 03:54N 30°04' W 093°35'3 7.1
2018-Jun-20 03:30N 30°04' W 093°38'3 6.8
2018-Jun-20 03:00N 30°03' W 093°42'2 3.6
2018-Jun-20 02:30N 30°02' W 093°44'3 5.2
2018-Jun-20 02:00N 30°00' W 093°46'0 0.4
2018-Jun-20 01:30N 30°01' W 093°46'3 5.6
2018-Jun-20 01:01N 29°59' W 093°48'3 6.5
2018-Jun-20 00:30N 29°57' W 093°52'3 5.8
2018-Jun-20 00:01N 29°55' W 093°53'2 4.8
2018-Jun-19 23:30N 29°53' W 093°55'3 6.3
2018-Jun-19 23:00N 29°50' W 093°57'3 5.5
2018-Jun-19 22:30N 29°49' W 093°60'3 6.1
2018-Jun-19 22:01N 29°47' W 094°02'3 6.1
2018-Jun-19 21:31N 29°45' W 094°05'3 5.9
2018-Jun-19 21:00N 29°43' W 094°08'3 5.8
2018-Jun-19 20:30N 29°41' W 094°10'3 5.8
2018-Jun-19 20:00N 29°40' W 094°14'  

Dump ship's entire track history